Time;durP1;ratioP1;P1;durP2;ratioP2;P2;SDS_P1;SDS_P2;PMS_P1;PMS_P2;Temp;Humidity;BMP_temperature;BMP_pressure;BME280_temperature;BME280_humidity;BME280_pressure;Samples;Min_cycle;Max_cycle;Signal;HPM_P1;HPM_P2
2021/08/19 00:00:58;;;;;;;;;;;;;;;18.55;51.54;94667.75;2161905;54;19991;-61
2021/08/19 00:03:00;;;;;;;;;;;;;;;18.57;51.39;94663.88;2161421;54;20057;-61
2021/08/19 00:05:02;;;;;;;;;;;;;;;18.52;51.79;94670.81;2160969;54;19953;-61
2021/08/19 00:07:04;;;;;;;;;;;;;;;18.52;51.46;94662.84;2162503;47;19968;-61
2021/08/19 00:09:06;;;;;;;;;;;;;;;18.55;51.17;94665.09;2162436;54;19994;-61
2021/08/19 00:11:08;;;;;;;;;;;;;;;18.49;51.21;94664.09;2161878;47;20013;-61
2021/08/19 00:13:10;;;;;;;;;;;;;;;18.54;51.15;94660.81;2161905;54;19971;-62
2021/08/19 00:15:11;;;;;;;;;;;;;;;18.53;51.36;94664.50;2161832;39;20180;-60
2021/08/19 00:17:13;;;;;;;;;;;;;;;18.58;50.62;94668.16;2161129;47;20018;-61
2021/08/19 00:19:15;;;;;;;;;;;;;;;18.50;50.93;94662.25;2161469;39;20021;-60
2021/08/19 00:21:16;;;;;;;;;;;;;;;18.46;50.84;94661.06;2161352;47;20044;-60
2021/08/19 00:23:18;;;;;;;;;;;;;;;18.50;50.58;94662.25;2161956;54;19994;-60
2021/08/19 00:25:19;;;;;;;;;;;;;;;18.46;51.02;94672.47;2162068;54;19990;-61
2021/08/19 00:27:21;;;;;;;;;;;;;;;18.34;51.07;94664.34;2161733;47;19946;-63
2021/08/19 00:29:23;;;;;;;;;;;;;;;18.33;50.92;94662.72;2162144;46;20087;-60
2021/08/19 00:31:24;;;;;;;;;;;;;;;18.20;51.12;94666.22;2161499;54;19992;-60
2021/08/19 00:33:26;;;;;;;;;;;;;;;18.30;51.26;94668.41;2161883;54;19998;-62
2021/08/19 00:35:28;;;;;;;;;;;;;;;18.31;51.21;94670.06;2161297;54;19973;-62
2021/08/19 00:37:31;;;;;;;;;;;;;;;18.30;51.03;94670.25;2162550;54;19955;-61
2021/08/19 00:39:33;;;;;;;;;;;;;;;18.26;51.61;94672.50;2162427;54;19951;-61
2021/08/19 00:41:35;;;;;;;;;;;;;;;18.19;51.56;94671.72;2161403;54;20443;-59
2021/08/19 00:43:36;;;;;;;;;;;;;;;18.19;51.47;94669.06;2162422;47;20450;-60
2021/08/19 00:45:38;;;;;;;;;;;;;;;18.26;51.45;94667.19;2161888;54;19954;-60
2021/08/19 00:47:40;;;;;;;;;;;;;;;18.16;51.70;94672.13;2162680;31;20517;-60
2021/08/19 00:49:42;;;;;;;;;;;;;;;18.11;51.15;94662.16;2161037;54;20030;-61
2021/08/19 00:51:45;;;;;;;;;;;;;;;18.17;51.38;94668.44;2162099;54;19951;-60
2021/08/19 00:53:47;;;;;;;;;;;;;;;18.14;51.37;94667.03;2162032;54;19947;-59
2021/08/19 00:55:49;;;;;;;;;;;;;;;18.19;51.00;94658.44;2160971;54;20103;-62
2021/08/19 00:57:51;;;;;;;;;;;;;;;18.08;50.28;94664.41;2162304;47;19991;-60
2021/08/19 00:59:53;;;;;;;;;;;;;;;18.09;50.94;94661.53;2161672;54;19950;-61
2021/08/19 01:01:54;;;;;;;;;;;;;;;18.14;50.44;94659.06;2161766;54;19946;-60
2021/08/19 01:03:56;;;;;;;;;;;;;;;18.16;50.14;94661.53;2161947;54;20033;-60
2021/08/19 01:05:58;;;;;;;;;;;;;;;18.19;50.32;94661.91;2160680;46;20014;-61
2021/08/19 01:07:59;;;;;;;;;;;;;;;18.28;50.27;94665.16;2161930;47;19950;-61
2021/08/19 01:10:01;;;;;;;;;;;;;;;18.29;50.11;94666.00;2161868;54;20581;-61
2021/08/19 01:12:04;;;;;;;;;;;;;;;18.19;50.42;94669.06;2160994;39;20140;-61
2021/08/19 01:14:05;;;;;;;;;;;;;;;18.20;50.51;94668.06;2161832;47;20085;-62
2021/08/19 01:16:07;;;;;;;;;;;;;;;18.26;50.32;94661.09;2160935;47;19990;-61
2021/08/19 01:18:09;;;;;;;;;;;;;;;18.20;50.41;94657.44;2160500;54;19947;-62
2021/08/19 01:20:10;;;;;;;;;;;;;;;18.28;49.92;94651.91;2160444;54;20084;-61
2021/08/19 01:22:13;;;;;;;;;;;;;;;18.21;49.74;94659.06;2161891;54;20063;-60
2021/08/19 01:24:14;;;;;;;;;;;;;;;18.11;50.37;94661.31;2161858;46;20061;-60
2021/08/19 01:26:17;;;;;;;;;;;;;;;18.07;50.20;94662.75;2161508;47;19946;-61
2021/08/19 01:28:18;;;;;;;;;;;;;;;18.04;49.69;94657.88;2161693;54;19954;-60
2021/08/19 01:30:20;;;;;;;;;;;;;;;18.00;49.87;94652.16;2161554;54;20058;-61
2021/08/19 01:32:22;;;;;;;;;;;;;;;18.01;49.79;94657.25;2160498;54;20030;-62
2021/08/19 01:34:24;;;;;;;;;;;;;;;18.03;49.73;94659.72;2158225;47;20495;-61
2021/08/19 01:36:26;;;;;;;;;;;;;;;17.96;50.07;94657.06;2161875;47;20009;-60
2021/08/19 01:38:32;;;;;;;;;;;;;;;17.95;49.88;94658.09;2162332;47;19946;-61
2021/08/19 01:40:33;;;;;;;;;;;;;;;17.99;49.58;94661.16;2162262;47;19947;-59
2021/08/19 01:42:35;;;;;;;;;;;;;;;17.98;49.36;94657.69;2161425;47;19950;-61
2021/08/19 01:44:37;;;;;;;;;;;;;;;18.03;49.25;94654.41;2161676;54;19966;-60
2021/08/19 01:46:38;;;;;;;;;;;;;;;18.03;49.42;94666.84;2161670;54;19946;-59
2021/08/19 01:48:46;;;;;;;;;;;;;;;18.03;49.01;94645.66;2161544;54;20076;-61
2021/08/19 01:50:48;;;;;;;;;;;;;;;18.08;49.12;94648.50;2161245;54;20560;-61
2021/08/19 01:52:50;;;;;;;;;;;;;;;18.05;48.83;94648.88;2162221;54;19951;-60
2021/08/19 01:54:52;;;;;;;;;;;;;;;18.05;48.91;94648.88;2162738;54;19958;-59
2021/08/19 01:56:54;;;;;;;;;;;;;;;18.04;48.89;94652.56;2162377;54;20451;-61
2021/08/19 01:58:55;;;;;;;;;;;;;;;18.00;49.21;94646.84;2162564;54;20459;-60
2021/08/19 02:00:57;;;;;;;;;;;;;;;17.96;49.36;94650.94;2162760;54;19947;-60
2021/08/19 02:03:02;;;;;;;;;;;;;;;17.99;49.02;94646.06;2163090;54;19947;-61
2021/08/19 02:05:04;;;;;;;;;;;;;;;17.99;49.31;94648.69;2162848;39;20321;-61
2021/08/19 02:07:06;;;;;;;;;;;;;;;17.97;49.10;94647.28;2162458;54;19950;-60
2021/08/19 02:09:07;;;;;;;;;;;;;;;17.97;49.24;94650.75;2161851;54;20046;-61
2021/08/19 02:11:09;;;;;;;;;;;;;;;17.96;49.14;94648.28;2162597;47;19946;-60
2021/08/19 02:13:11;;;;;;;;;;;;;;;17.93;48.93;94646.06;2162515;54;19950;-61
2021/08/19 02:15:13;;;;;;;;;;;;;;;17.93;48.87;94646.06;2162099;54;20029;-60
2021/08/19 02:17:15;;;;;;;;;;;;;;;17.87;48.91;94647.69;2162819;31;20497;-59
2021/08/19 02:19:16;;;;;;;;;;;;;;;17.86;49.24;94645.25;2161507;54;19975;-61
2021/08/19 02:21:18;;;;;;;;;;;;;;;17.85;49.09;94647.06;2161942;54;19943;-60
2021/08/19 02:23:20;;;;;;;;;;;;;;;17.89;48.94;94645.66;2162067;46;19951;-62
2021/08/19 02:25:21;;;;;;;;;;;;;;;17.78;49.11;94638.28;2162637;54;20046;-60
2021/08/19 02:27:23;;;;;;;;;;;;;;;17.85;48.98;94644.41;2162543;47;19994;-61
2021/08/19 02:29:25;;;;;;;;;;;;;;;17.93;48.51;94644.22;2162474;47;19990;-61
2021/08/19 02:31:26;;;;;;;;;;;;;;;17.96;48.21;94649.13;2161952;54;20455;-61
2021/08/19 02:33:28;;;;;;;;;;;;;;;18.03;48.48;94641.16;2162489;54;20502;-60
2021/08/19 02:35:30;;;;;;;;;;;;;;;18.10;48.07;94649.09;2161604;54;19999;-62
2021/08/19 02:37:32;;;;;;;;;;;;;;;18.05;48.06;94655.03;2162422;54;19946;-60
2021/08/19 02:39:33;;;;;;;;;;;;;;;18.00;48.08;94647.69;2162560;54;19998;-65
2021/08/19 02:41:35;;;;;;;;;;;;;;;17.91;48.82;94651.56;2162178;47;20038;-60
2021/08/19 02:43:42;;;;;;;;;;;;;;;17.86;48.58;94650.56;2161780;54;19959;-61
2021/08/19 02:45:44;;;;;;;;;;;;;;;17.87;48.47;94653.00;2162052;54;20141;-61
2021/08/19 02:47:46;;;;;;;;;;;;;;;17.78;48.27;94649.69;2162195;47;19983;-60
2021/08/19 02:49:47;;;;;;;;;;;;;;;17.84;48.31;94642.81;2161649;54;19954;-60
2021/08/19 02:51:49;;;;;;;;;;;;;;;17.93;48.21;94646.88;2161803;54;19965;-61
2021/08/19 02:53:51;;;;;;;;;;;;;;;17.86;48.38;94655.88;2162098;54;19994;-61
2021/08/19 02:55:52;;;;;;;;;;;;;;;17.94;48.26;94656.47;2162220;54;20058;-63
2021/08/19 02:57:54;;;;;;;;;;;;;;;18.01;47.93;94651.97;2162475;47;19947;-60
2021/08/19 02:59:56;;;;;;;;;;;;;;;17.99;48.08;94661.94;2162745;46;20417;-61
2021/08/19 03:01:57;;;;;;;;;;;;;;;17.95;48.06;94663.38;2162506;47;20980;-60
2021/08/19 03:03:59;;;;;;;;;;;;;;;17.98;48.19;94665.63;2162347;39;20461;-60
2021/08/19 03:06:01;;;;;;;;;;;;;;;18.03;48.07;94664.22;2161285;54;19954;-59
2021/08/19 03:08:03;;;;;;;;;;;;;;;18.00;47.86;94665.41;2163141;31;20431;-60
2021/08/19 03:10:05;;;;;;;;;;;;;;;17.97;47.89;94668.47;2162233;47;19962;-61
2021/08/19 03:12:07;;;;;;;;;;;;;;;17.98;47.68;94675.41;2162571;50;20056;-60
2021/08/19 03:14:09;;;;;;;;;;;;;;;18.03;48.20;94672.16;2162552;54;19966;-61
2021/08/19 03:16:10;;;;;;;;;;;;;;;17.99;47.99;94671.75;2162412;39;20238;-61
2021/08/19 03:18:12;;;;;;;;;;;;;;;18.03;47.86;94675.63;2162318;54;19946;-61
2021/08/19 03:20:14;;;;;;;;;;;;;;;18.03;47.84;94670.31;2160969;39;20265;-61
2021/08/19 03:22:15;;;;;;;;;;;;;;;18.04;47.78;94684.38;2162923;39;20300;-60
2021/08/19 03:24:17;;;;;;;;;;;;;;;18.00;48.06;94684.81;2162196;54;20475;-63
2021/08/19 03:26:19;;;;;;;;;;;;;;;17.95;47.97;94681.94;2162484;54;19975;-61
2021/08/19 03:28:22;;;;;;;;;;;;;;;17.95;48.11;94676.63;2162271;54;19954;-60
2021/08/19 03:30:24;;;;;;;;;;;;;;;17.89;48.19;94679.28;2162282;47;19964;-61
2021/08/19 03:32:25;;;;;;;;;;;;;;;17.87;48.45;94689.28;2162172;47;19950;-61
2021/08/19 03:34:27;;;;;;;;;;;;;;;17.84;47.89;94693.16;2162431;47;19947;-60
2021/08/19 03:36:29;;;;;;;;;;;;;;;17.84;48.31;94689.69;2161607;47;19972;-59
2021/08/19 03:38:31;;;;;;;;;;;;;;;17.84;47.98;94682.56;2161765;54;19950;-60
2021/08/19 03:40:33;;;;;;;;;;;;;;;17.81;48.30;94685.59;2162128;54;19939;-61
2021/08/19 03:42:37;;;;;;;;;;;;;;;17.84;47.78;94681.75;2161646;39;20394;-60
2021/08/19 03:44:39;;;;;;;;;;;;;;;17.85;47.88;94684.16;2161181;54;20058;-61
2021/08/19 03:46:41;;;;;;;;;;;;;;;17.84;47.88;94687.06;2161123;54;20010;-60
2021/08/19 03:48:43;;;;;;;;;;;;;;;17.89;47.42;94688.03;2162193;54;20134;-60
2021/08/19 03:50:44;;;;;;;;;;;;;;;17.89;47.55;94681.94;2160831;47;19946;-61
2021/08/19 03:52:46;;;;;;;;;;;;;;;17.89;47.79;94692.53;2161607;54;20054;-62
2021/08/19 03:54:49;;;;;;;;;;;;;;;17.89;47.62;94688.03;2162152;47;19994;-60
2021/08/19 03:56:52;;;;;;;;;;;;;;;17.90;47.80;94686.22;2162005;54;19962;-60
2021/08/19 03:58:55;;;;;;;;;;;;;;;17.93;47.62;94683.97;2161981;47;20132;-59
2021/08/19 04:00:57;;;;;;;;;;;;;;;17.96;46.99;94688.88;2161241;47;19954;-60
2021/08/19 04:03:00;;;;;;;;;;;;;;;17.92;47.17;94687.66;2162116;54;19947;-60
2021/08/19 04:05:02;;;;;;;;;;;;;;;17.94;47.57;94687.44;2161576;54;20053;-61
2021/08/19 04:07:04;;;;;;;;;;;;;;;17.97;46.95;94689.69;2162055;54;19998;-59
2021/08/19 04:09:06;;;;;;;;;;;;;;;17.87;47.01;94687.44;2162073;54;19947;-61
2021/08/19 04:11:07;;;;;;;;;;;;;;;17.99;46.72;94685.81;2161594;54;20002;-60
2021/08/19 04:13:09;;;;;;;;;;;;;;;17.88;47.17;94683.78;2162584;54;19946;-61
2021/08/19 04:15:11;;;;;;;;;;;;;;;17.86;47.54;94688.47;2162182;54;19947;-60
2021/08/19 04:17:12;;;;;;;;;;;;;;;17.94;47.58;94690.91;2162034;54;19998;-60
2021/08/19 04:19:14;;;;;;;;;;;;;;;17.96;47.33;94693.34;2161933;47;19974;-59
2021/08/19 04:21:16;;;;;;;;;;;;;;;17.97;47.45;94697.63;2160152;54;20015;-60
2021/08/19 04:23:17;;;;;;;;;;;;;;;17.85;48.58;94699.25;2162132;54;20061;-62
2021/08/19 04:25:19;;;;;;;;;;;;;;;17.78;48.74;94707.19;2162515;39;20536;-60
2021/08/19 04:27:20;;;;;;;;;;;;;;;17.88;48.44;94704.16;2162310;54;19998;-62
2021/08/19 04:29:22;;;;;;;;;;;;;;;17.92;47.88;94698.25;2162285;54;19975;-62
2021/08/19 04:31:24;;;;;;;;;;;;;;;17.91;48.15;94703.75;2161873;54;20374;-60
2021/08/19 04:33:28;;;;;;;;;;;;;;;18.00;47.63;94705.16;2161731;54;19958;-61
2021/08/19 04:35:31;;;;;;;;;;;;;;;18.10;47.56;94707.41;2161067;47;19946;-61
2021/08/19 04:37:34;;;;;;;;;;;;;;;18.21;47.15;94704.13;2161867;47;19991;-61
2021/08/19 04:39:36;;;;;;;;;;;;;;;18.27;47.46;94705.97;2162160;54;20050;-60
2021/08/19 04:41:37;;;;;;;;;;;;;;;18.34;46.98;94700.66;2162206;54;19947;-60
2021/08/19 04:43:39;;;;;;;;;;;;;;;18.36;46.92;94698.59;2161640;54;20046;-60
2021/08/19 04:45:41;;;;;;;;;;;;;;;18.45;46.56;94707.16;2161896;47;20062;-60
2021/08/19 04:47:42;;;;;;;;;;;;;;;18.48;46.24;94698.81;2161991;54;19982;-60
2021/08/19 04:49:44;;;;;;;;;;;;;;;18.53;46.43;94702.44;2161460;54;19946;-61
2021/08/19 04:51:46;;;;;;;;;;;;;;;18.46;45.99;94704.31;2162125;39;20399;-60
2021/08/19 04:53:47;;;;;;;;;;;;;;;18.48;46.08;94702.25;2162034;54;19998;-62
2021/08/19 04:55:49;;;;;;;;;;;;;;;18.58;45.88;94700.00;2161854;39;20140;-60
2021/08/19 04:57:50;;;;;;;;;;;;;;;18.40;46.80;94702.47;2162373;54;19994;-62
2021/08/19 04:59:52;;;;;;;;;;;;;;;18.37;46.67;94709.03;2161803;54;19955;-59
2021/08/19 05:01:54;;;;;;;;;;;;;;;18.16;47.13;94703.94;2162055;54;20486;-62
2021/08/19 05:03:59;;;;;;;;;;;;;;;18.03;47.61;94707.44;2162142;47;19947;-60
2021/08/19 05:06:00;;;;;;;;;;;;;;;17.88;48.25;94710.28;2161219;54;20034;-60
2021/08/19 05:08:02;;;;;;;;;;;;;;;17.47;47.85;94715.72;2161940;54;19950;-61
2021/08/19 05:10:04;;;;;;;;;;;;;;;17.34;49.42;94711.22;2161985;54;19951;-59
2021/08/19 05:12:06;;;;;;;;;;;;;;;17.31;49.02;94714.25;2162211;54;19990;-62
2021/08/19 05:14:07;;;;;;;;;;;;;;;16.95;49.84;94716.19;2161859;54;19951;-63
2021/08/19 05:16:09;;;;;;;;;;;;;;;17.01;50.18;94719.84;2161802;39;20352;-59
2021/08/19 05:18:11;;;;;;;;;;;;;;;16.98;50.03;94718.44;2160990;54;19946;-61
2021/08/19 05:20:12;;;;;;;;;;;;;;;17.16;50.03;94723.19;2161377;47;20420;-61
2021/08/19 05:22:14;;;;;;;;;;;;;;;17.08;50.49;94723.34;2160762;54;19947;-62
2021/08/19 05:24:16;;;;;;;;;;;;;;;16.87;50.58;94723.47;2162014;54;19998;-58
2021/08/19 05:26:18;;;;;;;;;;;;;;;17.23;50.04;94717.91;2162043;39;20066;-60
2021/08/19 05:28:20;;;;;;;;;;;;;;;17.64;48.49;94716.97;2160810;54;19958;-62
2021/08/19 05:30:21;;;;;;;;;;;;;;;17.94;47.46;94732.47;2161769;54;19947;-61
2021/08/19 05:32:23;;;;;;;;;;;;;;;18.13;46.59;94721.09;2162138;47;20538;-62
2021/08/19 05:34:25;;;;;;;;;;;;;;;18.31;46.42;94728.41;2162834;54;20002;-62
2021/08/19 05:36:26;;;;;;;;;;;;;;;18.14;46.58;94729.84;2161541;54;20071;-61
2021/08/19 05:38:28;;;;;;;;;;;;;;;17.94;46.38;94721.88;2162677;54;19951;-61
2021/08/19 05:40:30;;;;;;;;;;;;;;;17.82;47.52;94729.63;2161474;47;20002;-61
2021/08/19 05:42:31;;;;;;;;;;;;;;;17.89;47.44;94727.81;2162410;47;20030;-62
2021/08/19 05:44:33;;;;;;;;;;;;;;;18.19;46.56;94727.38;2162798;31;20438;-60
2021/08/19 05:46:37;;;;;;;;;;;;;;;18.33;45.92;94721.06;2162323;54;20046;-61
2021/08/19 05:48:39;;;;;;;;;;;;;;;18.56;45.81;94723.28;2162182;54;19998;-58
2021/08/19 05:50:40;;;;;;;;;;;;;;;18.52;45.79;94726.50;2160826;54;20092;-60
2021/08/19 05:52:43;;;;;;;;;;;;;;;18.47;45.45;94721.03;2162350;54;20010;-60
2021/08/19 05:54:45;;;;;;;;;;;;;;;18.50;45.83;94721.44;2162686;47;20301;-60
2021/08/19 05:56:47;;;;;;;;;;;;;;;18.60;45.98;94721.00;2162530;54;19946;-60
2021/08/19 05:58:48;;;;;;;;;;;;;;;18.62;45.79;94727.72;2162515;46;20014;-61
2021/08/19 06:00:50;;;;;;;;;;;;;;;18.62;45.30;94734.88;2162542;39;20344;-61
2021/08/19 06:02:52;;;;;;;;;;;;;;;18.62;45.44;94727.72;2162307;47;19946;-60
2021/08/19 06:04:55;;;;;;;;;;;;;;;18.80;44.64;94731.59;2161811;54;19947;-60
2021/08/19 06:06:56;;;;;;;;;;;;;;;18.48;46.16;94726.13;2162454;54;20047;-60
2021/08/19 06:08:58;;;;;;;;;;;;;;;18.46;46.12;94728.19;2162184;47;19951;-60
2021/08/19 06:11:00;;;;;;;;;;;;;;;18.66;45.81;94722.00;2162365;47;19998;-61
2021/08/19 06:13:01;;;;;;;;;;;;;;;18.76;45.57;94725.84;2162505;31;20408;-60
2021/08/19 06:15:03;;;;;;;;;;;;;;;18.83;45.67;94721.38;2162477;39;20367;-61
2021/08/19 06:17:05;;;;;;;;;;;;;;;18.66;46.24;94722.81;2162280;54;19958;-62
2021/08/19 06:19:07;;;;;;;;;;;;;;;18.45;47.30;94726.53;2162152;54;19979;-61
2021/08/19 06:21:09;;;;;;;;;;;;;;;18.56;46.68;94719.78;2161075;54;19951;-61
2021/08/19 06:23:11;;;;;;;;;;;;;;;18.87;46.43;94715.66;2161455;54;19998;-61
2021/08/19 06:25:13;;;;;;;;;;;;;;;18.91;46.04;94727.47;2162472;47;20065;-60
2021/08/19 06:27:15;;;;;;;;;;;;;;;18.95;46.10;94713.56;2162431;54;19998;-62
2021/08/19 06:29:16;;;;;;;;;;;;;;;19.17;45.68;94724.72;2163200;31;20432;-60
2021/08/19 06:31:18;;;;;;;;;;;;;;;19.28;44.77;94717.09;2162349;54;19950;-60
2021/08/19 06:33:20;;;;;;;;;;;;;;;19.35;44.73;94712.56;2161959;47;20510;-63
2021/08/19 06:35:21;;;;;;;;;;;;;;;19.35;44.98;94709.91;2161706;54;19976;-61
2021/08/19 06:37:23;;;;;;;;;;;;;;;18.53;46.55;94714.91;2162371;54;20014;-61
2021/08/19 06:39:25;;;;;;;;;;;;;;;18.26;47.28;94709.63;2162379;54;20050;-61
2021/08/19 06:41:27;;;;;;;;;;;;;;;18.61;46.62;94714.69;2162527;54;19955;-60
2021/08/19 06:43:28;;;;;;;;;;;;;;;18.95;46.03;94713.56;2161945;47;19955;-61
2021/08/19 06:45:30;;;;;;;;;;;;;;;19.29;45.36;94705.44;2162011;47;20014;-62
2021/08/19 06:47:32;;;;;;;;;;;;;;;19.47;44.57;94708.22;2162114;39;20466;-60
2021/08/19 06:49:34;;;;;;;;;;;;;;;19.58;44.61;94710.16;2162127;54;20002;-59
2021/08/19 06:51:35;;;;;;;;;;;;;;;19.20;45.35;94711.00;2161888;54;19953;-60
2021/08/19 06:53:37;;;;;;;;;;;;;;;18.60;46.75;94705.06;2162204;54;20030;-62
2021/08/19 06:55:38;;;;;;;;;;;;;;;18.78;46.29;94707.91;2162398;47;19947;-60
2021/08/19 06:57:40;;;;;;;;;;;;;;;19.15;45.30;94707.38;2161790;54;20071;-60
2021/08/19 06:59:42;;;;;;;;;;;;;;;18.73;44.40;94710.34;2162290;54;19994;-61
2021/08/19 07:01:44;;;;;;;;;;;;;;;18.38;45.68;94713.28;2162513;47;20582;-61
2021/08/19 07:03:45;;;;;;;;;;;;;;;18.63;45.57;94704.69;2162409;54;19965;-62
2021/08/19 07:05:48;;;;;;;;;;;;;;;19.00;45.42;94708.44;2161180;54;19946;-60
2021/08/19 07:07:50;;;;;;;;;;;;;;;18.77;45.38;94703.59;2162348;54;20534;-62
2021/08/19 07:09:52;;;;;;;;;;;;;;;18.51;44.93;94707.13;2162025;39;20231;-62
2021/08/19 07:11:54;;;;;;;;;;;;;;;18.52;46.45;94700.81;2162143;47;19950;-61
2021/08/19 07:13:56;;;;;;;;;;;;;;;18.85;44.69;94701.78;2162553;39;20425;-61
2021/08/19 07:15:57;;;;;;;;;;;;;;;19.16;44.18;94699.16;2162257;54;20008;-62
2021/08/19 07:17:59;;;;;;;;;;;;;;;19.41;43.09;94695.78;2162029;54;20045;-61
2021/08/19 07:20:01;;;;;;;;;;;;;;;19.79;42.75;94702.91;2161565;47;20491;-61
2021/08/19 07:22:02;;;;;;;;;;;;;;;19.56;43.64;94695.47;2161542;54;20279;-61
2021/08/19 07:24:04;;;;;;;;;;;;;;;19.93;42.52;94698.31;2161134;54;20448;-60
2021/08/19 07:26:06;;;;;;;;;;;;;;;19.40;44.32;94705.59;2161964;54;19998;-62
2021/08/19 07:28:07;;;;;;;;;;;;;;;19.44;43.66;94695.34;2162318;54;20051;-61
2021/08/19 07:30:10;;;;;;;;;;;;;;;19.25;44.10;94699.72;2161822;54;20487;-62
2021/08/19 07:32:11;;;;;;;;;;;;;;;19.62;42.99;94700.75;2162042;31;20571;-61
2021/08/19 07:34:13;;;;;;;;;;;;;;;19.68;43.04;94704.41;2162585;39;20390;-61
2021/08/19 07:36:15;;;;;;;;;;;;;;;20.02;42.16;94699.66;2161399;47;19994;-61
2021/08/19 07:38:18;;;;;;;;;;;;;;;20.32;41.76;94697.13;2161990;47;20001;-61
2021/08/19 07:40:31;;;;;;;;;;;;;;;20.46;41.93;94693.31;2162016;39;20256;-62
2021/08/19 07:42:32;;;;;;;;;;;;;;;19.98;42.08;94711.75;2162076;54;20142;-61
2021/08/19 07:44:34;;;;;;;;;;;;;;;19.67;42.85;94699.28;2162143;47;19998;-61
2021/08/19 07:46:36;;;;;;;;;;;;;;;20.09;41.69;94692.44;2162145;47;20594;-61
2021/08/19 07:48:40;;;;;;;;;;;;;;;20.30;41.17;94701.84;2161779;54;19946;-62
2021/08/19 07:50:42;;;;;;;;;;;;;;;20.71;40.19;94692.44;2161478;54;19998;-61
2021/08/19 07:52:43;;;;;;;;;;;;;;;20.99;39.45;94696.44;2161839;54;20002;-61
2021/08/19 07:54:45;;;;;;;;;;;;;;;21.11;39.37;94693.84;2161715;54;19948;-60
2021/08/19 07:56:47;;;;;;;;;;;;;;;21.28;38.95;94695.66;2162153;54;19994;-61
2021/08/19 07:58:48;;;;;;;;;;;;;;;21.38;39.20;94683.63;2162353;54;20408;-63
2021/08/19 08:00:50;;;;;;;;;;;;;;;21.54;39.45;94680.34;2161630;54;19982;-61
2021/08/19 08:02:52;;;;;;;;;;;;;;;21.78;39.02;94683.09;2161600;54;19970;-60
2021/08/19 08:04:54;;;;;;;;;;;;;;;21.86;37.91;94685.41;2161494;47;20478;-61
2021/08/19 08:06:56;;;;;;;;;;;;;;;21.97;37.57;94684.63;2161898;47;20200;-60
2021/08/19 08:08:58;;;;;;;;;;;;;;;22.07;37.13;94687.53;2162041;54;19947;-61
2021/08/19 08:10:59;;;;;;;;;;;;;;;22.03;36.86;94686.38;2162017;54;20186;-59
2021/08/19 08:13:01;;;;;;;;;;;;;;;22.13;36.96;94685.78;2161503;54;20748;-60
2021/08/19 08:15:03;;;;;;;;;;;;;;;22.29;36.47;94679.00;2162344;47;19958;-59
2021/08/19 08:17:05;;;;;;;;;;;;;;;22.30;36.40;94675.25;2161326;54;20467;-60
2021/08/19 08:19:07;;;;;;;;;;;;;;;22.43;35.65;94679.56;2162223;54;19969;-62
2021/08/19 08:21:13;;;;;;;;;;;;;;;22.52;36.20;94669.31;2161386;54;19994;-62
2021/08/19 08:23:19;;;;;;;;;;;;;;;21.37;37.73;94676.69;2161745;54;20298;-59
2021/08/19 08:25:21;;;;;;;;;;;;;;;21.21;38.48;94670.97;2161457;39;20002;-60
2021/08/19 08:27:22;;;;;;;;;;;;;;;21.61;37.49;94672.25;2161611;54;20038;-61
2021/08/19 08:29:25;;;;;;;;;;;;;;;21.88;37.09;94662.00;2163241;31;20409;-62
2021/08/19 08:31:27;;;;;;;;;;;;;;;21.95;36.48;94668.03;2161758;47;20467;-60
2021/08/19 08:33:30;;;;;;;;;;;;;;;22.11;36.45;94665.72;2162177;47;20483;-61
2021/08/19 08:35:37;;;;;;;;;;;;;;;22.02;37.03;94660.72;2161498;54;20134;-61
2021/08/19 08:37:39;;;;;;;;;;;;;;;21.74;36.39;94663.25;2162337;39;20086;-62
2021/08/19 08:39:40;;;;;;;;;;;;;;;21.67;36.99;94664.16;2161881;54;19998;-60
2021/08/19 08:41:42;;;;;;;;;;;;;;;21.45;36.48;94660.41;2161974;54;20007;-61
2021/08/19 08:43:44;;;;;;;;;;;;;;;21.57;36.52;94658.56;2161875;54;20002;-62
2021/08/19 08:45:46;;;;;;;;;;;;;;;21.88;36.84;94654.00;2161033;54;20002;-62
2021/08/19 08:47:48;;;;;;;;;;;;;;;21.92;36.95;94665.00;2161701;54;19953;-61
2021/08/19 08:49:51;;;;;;;;;;;;;;;21.75;36.78;94651.56;2160729;47;19975;-62
2021/08/19 08:51:56;;;;;;;;;;;;;;;21.88;36.73;94651.34;2161447;47;19950;-61
2021/08/19 08:53:57;;;;;;;;;;;;;;;22.19;36.15;94644.03;2161762;54;19943;-62
2021/08/19 08:55:59;;;;;;;;;;;;;;;22.32;36.42;94651.03;2162022;47;19975;-60
2021/08/19 08:58:01;;;;;;;;;;;;;;;22.20;36.50;94648.31;2162240;54;20002;-62
2021/08/19 09:00:04;;;;;;;;;;;;;;;21.92;37.24;94644.50;2161976;54;20014;-61
2021/08/19 09:02:05;;;;;;;;;;;;;;;22.28;36.80;94631.97;2161725;54;20074;-63
2021/08/19 09:04:07;;;;;;;;;;;;;;;22.57;36.52;94642.75;2161823;54;19975;-60
2021/08/19 09:06:09;;;;;;;;;;;;;;;22.46;35.75;94637.19;2161450;54;20539;-60
2021/08/19 09:08:15;;;;;;;;;;;;;;;22.16;35.69;94637.31;2162646;39;20380;-59
2021/08/19 09:10:24;;;;;;;;;;;;;;;22.22;34.72;94633.75;2162669;54;20050;-61
2021/08/19 09:12:26;;;;;;;;;;;;;;;22.22;34.72;94635.56;2162317;47;20531;-60
2021/08/19 09:14:29;;;;;;;;;;;;;;;22.73;33.83;94631.31;2162399;54;19946;-60
2021/08/19 09:16:30;;;;;;;;;;;;;;;23.08;33.01;94633.94;2162150;46;20470;-62
2021/08/19 09:18:33;;;;;;;;;;;;;;;23.09;32.04;94635.53;2162155;50;19954;-61
2021/08/19 09:20:36;;;;;;;;;;;;;;;23.33;32.35;94630.09;2162782;39;20298;-60
2021/08/19 09:22:57;;;;;;;;;;;;;;;23.42;31.63;94619.81;2162225;47;19991;-60
2021/08/19 09:24:58;;;;;;;;;;;;;;;23.56;31.48;94637.19;2162431;31;20407;-61
2021/08/19 09:27:09;;;;;;;;;;;;;;;23.85;31.25;94621.88;2162159;54;19994;-59
2021/08/19 09:29:15;;;;;;;;;;;;;;;23.93;30.93;94628.72;2162601;54;20561;-62
2021/08/19 09:31:16;;;;;;;;;;;;;;;24.12;30.07;94611.34;2161853;46;19954;-61
2021/08/19 09:33:20;;;;;;;;;;;;;;;24.40;29.89;94616.81;2162059;54;20003;-62
2021/08/19 09:35:21;;;;;;;;;;;;;;;24.44;29.39;94610.72;2162078;54;19950;-61
2021/08/19 09:37:25;;;;;;;;;;;;;;;24.32;29.38;94618.03;2162541;46;19986;-61
2021/08/19 09:39:34;;;;;;;;;;;;;;;24.08;28.76;94604.84;2162579;47;19955;-61
2021/08/19 09:41:52;;;;;;;;;;;;;;;24.20;28.39;94603.94;2161669;54;20006;-63
2021/08/19 09:43:54;;;;;;;;;;;;;;;23.81;29.35;94607.41;2162034;47;19990;-61
2021/08/19 09:45:55;;;;;;;;;;;;;;;24.10;28.96;94601.94;2161754;47;19950;-59
2021/08/19 09:48:10;;;;;;;;;;;;;;;24.28;28.68;94598.16;2162373;54;20136;-62
2021/08/19 09:50:13;;;;;;;;;;;;;;;24.23;28.32;94588.19;2162123;54;19994;-61
2021/08/19 09:52:16;;;;;;;;;;;;;;;24.02;29.25;94595.13;2162596;39;20375;-61
2021/08/19 09:54:26;;;;;;;;;;;;;;;23.49;30.40;94601.78;2162363;47;19957;-61
2021/08/19 09:56:31;;;;;;;;;;;;;;;23.84;30.46;94590.06;2162480;54;19947;-61
2021/08/19 09:58:33;;;;;;;;;;;;;;;23.76;30.13;94590.47;2162742;54;19946;-61
2021/08/19 10:00:40;;;;;;;;;;;;;;;24.17;30.17;94580.34;2162365;54;19954;-61
2021/08/19 10:02:43;;;;;;;;;;;;;;;24.36;29.78;94584.38;2162828;47;20494;-61
2021/08/19 10:04:44;;;;;;;;;;;;;;;24.59;29.13;94572.63;2161882;54;20247;-62
2021/08/19 10:06:46;;;;;;;;;;;;;;;24.45;28.35;94580.19;2162674;54;20053;-60
2021/08/19 10:08:48;;;;;;;;;;;;;;;24.51;28.51;94575.75;2162516;54;19995;-61
2021/08/19 10:10:50;;;;;;;;;;;;;;;24.26;28.75;94574.34;2162740;39;20387;-60
2021/08/19 10:12:52;;;;;;;;;;;;;;;24.19;28.94;94570.22;2162191;47;19951;-60
2021/08/19 10:14:55;;;;;;;;;;;;;;;24.26;28.81;94570.84;2161502;54;19953;-61
2021/08/19 10:16:56;;;;;;;;;;;;;;;24.06;29.32;94566.03;2161804;54;20445;-60
2021/08/19 10:19:03;;;;;;;;;;;;;;;24.11;28.76;94566.91;2162442;54;19947;-61
2021/08/19 10:21:09;;;;;;;;;;;;;;;24.05;28.98;94567.91;2160886;47;19947;-62
2021/08/19 10:23:30;;;;;;;;;;;;;;;24.47;28.57;94558.53;2161531;47;20003;-61
2021/08/19 10:25:32;;;;;;;;;;;;;;;24.81;28.38;94548.50;2161363;46;19991;-59
2021/08/19 10:27:34;;;;;;;;;;;;;;;25.15;28.07;94551.00;2160908;46;20025;-59
2021/08/19 10:29:41;;;;;;;;;;;;;;;25.13;28.20;94555.81;2162132;47;19954;-62
2021/08/19 10:31:44;;;;;;;;;;;;;;;25.43;27.85;94554.50;2162828;39;20320;-61
2021/08/19 10:33:45;;;;;;;;;;;;;;;25.38;27.36;94551.75;2162655;54;19992;-60
2021/08/19 10:35:47;;;;;;;;;;;;;;;25.48;26.57;94541.13;2161455;54;19951;-59
2021/08/19 10:37:52;;;;;;;;;;;;;;;25.54;26.69;94540.09;2162717;39;20364;-61